createdAt,value
2017-05-24T00:01:12.478Z,51.13
2017-05-24T00:01:52.874Z,51.29
2017-05-24T00:02:33.277Z,51.13
2017-05-24T00:03:13.668Z,51.32
2017-05-24T00:03:54.087Z,51.42
2017-05-24T00:04:34.493Z,51.32
2017-05-24T00:05:14.956Z,51.32
2017-05-24T00:05:55.342Z,51.79
2017-05-24T00:06:35.709Z,51.77
2017-05-24T00:07:16.116Z,51.7
2017-05-24T00:07:56.558Z,51.61
2017-05-24T00:08:36.974Z,51.89
2017-05-24T00:09:17.374Z,51.51
2017-05-24T00:09:57.846Z,51.79
2017-05-24T00:10:38.226Z,51.87
2017-05-24T00:11:18.653Z,51.87
2017-05-24T00:11:59.109Z,51.87
2017-05-24T00:12:39.536Z,51.77
2017-05-24T00:13:19.987Z,51.97
2017-05-24T00:14:00.452Z,51.97
2017-05-24T00:14:40.834Z,51.77
2017-05-24T00:15:21.243Z,51.68
2017-05-24T00:16:01.673Z,51.87
2017-05-24T00:16:42.124Z,52.15
2017-05-24T00:17:22.551Z,52.15
2017-05-24T00:18:02.920Z,52.06
2017-05-24T00:18:43.396Z,52.06
2017-05-24T00:19:23.766Z,51.97
2017-05-24T00:20:04.212Z,51.68
2017-05-24T00:20:44.646Z,52.06
2017-05-24T00:21:25.050Z,51.77
2017-05-24T00:22:05.457Z,52.06
2017-05-24T00:22:45.851Z,52.15
2017-05-24T00:23:26.293Z,52.34
2017-05-24T00:24:06.729Z,52.15
2017-05-24T00:24:47.149Z,52.92
2017-05-24T00:25:27.579Z,52.7
2017-05-24T00:26:08.002Z,52.22
2017-05-24T00:26:48.367Z,52.7
2017-05-24T00:27:28.804Z,52.89
2017-05-24T00:28:09.234Z,53.18
2017-05-24T00:28:49.633Z,53.18
2017-05-24T00:29:30.078Z,53.08
2017-05-24T00:30:10.480Z,53.08
2017-05-24T00:30:50.886Z,53.08
2017-05-24T00:31:31.286Z,53.08
2017-05-24T00:32:12.203Z,53.08
2017-05-24T00:32:52.639Z,53.37
2017-05-24T00:33:33.039Z,53.28
2017-05-24T00:34:13.488Z,53.75
2017-05-24T00:34:53.935Z,53.66
2017-05-24T00:35:34.371Z,53.75
2017-05-24T00:36:14.810Z,53.66
2017-05-24T00:36:55.201Z,53.37
2017-05-24T00:37:35.632Z,53.28
2017-05-24T00:38:16.050Z,53.47
2017-05-24T00:38:56.406Z,53.66
2017-05-24T00:39:36.847Z,53.37
2017-05-24T00:40:17.318Z,53.28
2017-05-24T00:40:57.725Z,53.08
2017-05-24T00:41:38.187Z,52.99
2017-05-24T00:42:18.565Z,53.18
2017-05-24T00:42:59.017Z,53.08
2017-05-24T00:43:39.438Z,53.08
2017-05-24T00:44:19.885Z,53.08
2017-05-24T00:45:00.290Z,53.08
2017-05-24T00:45:40.705Z,53.08
2017-05-24T00:46:21.105Z,53.08
2017-05-24T00:47:01.558Z,53.08
2017-05-24T00:47:41.919Z,53.08
2017-05-24T00:48:22.366Z,53.08
2017-05-24T00:49:02.767Z,53.18
2017-05-24T00:49:43.190Z,52.99
2017-05-24T00:50:23.581Z,53.08
2017-05-24T00:51:04.017Z,53.08
2017-05-24T00:51:44.437Z,52.7
2017-05-24T00:52:24.806Z,52.8
2017-05-24T00:53:05.251Z,52.42
2017-05-24T00:53:45.638Z,52.51
2017-05-24T00:54:26.124Z,52.7
2017-05-24T00:55:06.490Z,52.73
2017-05-24T00:55:46.935Z,52.73
2017-05-24T00:56:27.361Z,52.42
2017-05-24T00:57:07.732Z,52.7
2017-05-24T00:57:48.204Z,52.7
2017-05-24T00:58:29.251Z,52.54
2017-05-24T00:59:09.695Z,52.7
2017-05-24T00:59:50.811Z,52.8
2017-05-24T01:00:31.258Z,52.8
2017-05-24T01:01:12.925Z,52.61
2017-05-24T01:01:55.178Z,52.32
2017-05-24T01:02:35.742Z,52.51
2017-05-24T01:03:16.563Z,52.51
2017-05-24T01:03:57.004Z,52.7
2017-05-24T01:04:37.394Z,52.51
2017-05-24T01:05:17.843Z,52.7
2017-05-24T01:05:58.254Z,52.7
2017-05-24T01:06:38.733Z,52.7
2017-05-24T01:07:19.192Z,52.7
2017-05-24T01:07:59.765Z,52.61
2017-05-24T01:08:40.122Z,52.51
2017-05-24T01:09:20.729Z,52.51
2017-05-24T01:10:01.141Z,52.51
2017-05-24T01:10:41.551Z,52.61
2017-05-24T01:11:21.979Z,52.42
2017-05-24T01:12:02.411Z,52.51
2017-05-24T01:12:42.835Z,52.42
2017-05-24T01:13:23.209Z,52.42
2017-05-24T01:14:03.654Z,52.22
2017-05-24T01:14:44.051Z,52.61
2017-05-24T01:15:24.486Z,52.61
2017-05-24T01:16:05.730Z,52.51
2017-05-24T01:16:46.164Z,52.42
2017-05-24T01:17:26.579Z,52.32
2017-05-24T01:18:07.002Z,52.51
2017-05-24T01:18:47.427Z,52.51
2017-05-24T01:19:27.862Z,52.61
2017-05-24T01:20:09.041Z,52.61
2017-05-24T01:20:49.459Z,52.51
2017-05-24T01:21:29.867Z,52.32
2017-05-24T01:22:10.294Z,52.42
2017-05-24T01:22:50.737Z,52.61
2017-05-24T01:23:31.140Z,52.32
2017-05-24T01:24:12.427Z,52.32
2017-05-24T01:24:52.866Z,52.61
2017-05-24T01:25:33.300Z,52.7
2017-05-24T01:26:13.695Z,52.61
2017-05-24T01:26:55.057Z,52.7
2017-05-24T01:27:35.496Z,52.32
2017-05-24T01:28:15.916Z,52.42
2017-05-24T01:28:56.361Z,52.42
2017-05-24T01:29:36.728Z,52.32
2017-05-24T01:30:17.222Z,52.42
2017-05-24T01:30:57.631Z,52.51
2017-05-24T01:31:38.624Z,52.61
2017-05-24T01:32:19.058Z,52.7
2017-05-24T01:32:59.501Z,52.61
2017-05-24T01:33:39.942Z,52.61
2017-05-24T01:34:20.316Z,52.51
2017-05-24T01:35:01.716Z,52.51
2017-05-24T01:35:42.118Z,52.51
2017-05-24T01:36:22.513Z,52.42
2017-05-24T01:37:03.011Z,52.51
2017-05-24T01:37:45.225Z,52.42
2017-05-24T01:38:27.066Z,52.8
2017-05-24T01:40:14.617Z,52.89
2017-05-24T01:40:55.034Z,52.89
2017-05-24T01:41:35.453Z,52.8
2017-05-24T01:42:15.910Z,52.7
2017-05-24T01:42:56.369Z,52.8
2017-05-24T01:43:37.735Z,53.18
2017-05-24T01:44:18.096Z,53.18
2017-05-24T01:44:59.355Z,53.18
2017-05-24T01:45:39.810Z,52.7
2017-05-24T01:46:20.174Z,53.08
2017-05-24T01:48:07.870Z,53.18
2017-05-24T01:48:48.227Z,53.28
2017-05-24T01:49:28.671Z,52.99
2017-05-24T01:50:09.953Z,52.99
2017-05-24T01:50:50.372Z,53.18
2017-05-24T01:53:04.777Z,53.28
2017-05-24T01:54:57.229Z,52.99
2017-05-24T01:55:40.520Z,52.89
2017-05-24T01:56:20.892Z,53.08
2017-05-24T01:57:01.315Z,53.28
2017-05-24T01:57:41.800Z,53.28
2017-05-24T01:58:22.196Z,53.08
2017-05-24T01:59:03.605Z,53.08
2017-05-24T02:00:52.952Z,53.18
2017-05-24T02:03:16.420Z,53.47
2017-05-24T02:03:57.473Z,53.56
2017-05-24T02:04:38.482Z,53.66
2017-05-24T02:05:18.922Z,53.28
2017-05-24T02:05:59.329Z,53.28
2017-05-24T02:06:39.774Z,53.66
2017-05-24T02:07:20.213Z,53.37
2017-05-24T02:08:00.651Z,53.28
2017-05-24T02:08:41.606Z,53.28
2017-05-24T02:09:22.620Z,53.37
2017-05-24T02:10:03.018Z,53.75
2017-05-24T02:10:43.458Z,53.66
2017-05-24T02:11:23.856Z,54.04
2017-05-24T02:12:04.287Z,54.04
2017-05-24T02:12:44.678Z,54.43
2017-05-24T02:13:25.145Z,54.33
2017-05-24T02:14:05.552Z,54.3
2017-05-24T02:14:45.942Z,54.39
2017-05-24T02:17:04.028Z,54.59
2017-05-24T02:19:31.136Z,54.97
2017-05-24T02:20:11.594Z,55.07
2017-05-24T02:20:53.788Z,55.16
2017-05-24T02:21:34.836Z,55.16
2017-05-24T02:22:16.727Z,55.07
2017-05-24T02:22:57.164Z,55.16
2017-05-24T02:23:37.519Z,55.54
2017-05-24T02:24:17.951Z,55.26
2017-05-24T02:24:58.395Z,55.74
2017-05-24T02:25:38.859Z,55.26
2017-05-24T02:26:19.227Z,55.83
2017-05-24T02:26:59.665Z,55.64
2017-05-24T02:27:40.081Z,55.74
2017-05-24T02:28:20.544Z,55.64
2017-05-24T02:29:00.979Z,55.54
2017-05-24T02:29:41.432Z,55.99
2017-05-24T02:30:21.833Z,55.99
2017-05-24T02:31:02.235Z,56.38
2017-05-24T02:31:42.650Z,56.47
2017-05-24T02:32:23.099Z,56.47
2017-05-24T02:33:03.485Z,56.76
2017-05-24T02:33:43.871Z,56.95
2017-05-24T02:34:24.310Z,57.04
2017-05-24T02:35:04.778Z,57.43
2017-05-24T02:35:45.170Z,57.14
2017-05-24T02:36:25.596Z,57.24
2017-05-24T02:37:06.059Z,57.33
2017-05-24T02:37:46.419Z,57.68
2017-05-24T02:38:26.862Z,57.62
2017-05-24T02:39:07.233Z,57.59
2017-05-24T02:39:48.337Z,57.53
2017-05-24T02:40:28.723Z,57.78
2017-05-24T02:41:09.164Z,57.97
2017-05-24T02:41:49.542Z,57.87
2017-05-24T02:42:29.990Z,57.68
2017-05-24T02:43:10.384Z,57.97
2017-05-24T02:43:50.868Z,58.45
2017-05-24T02:44:31.250Z,58.45
2017-05-24T02:45:11.703Z,58.54
2017-05-24T02:45:52.084Z,58.45
2017-05-24T02:46:32.468Z,58.54
2017-05-24T02:47:12.853Z,58.64
2017-05-24T02:47:53.265Z,58.45
2017-05-24T02:48:33.680Z,58.36
2017-05-24T02:49:14.102Z,58.54
2017-05-24T02:49:54.465Z,58.45
2017-05-24T02:50:34.925Z,58.54
2017-05-24T02:51:15.307Z,58.16
2017-05-24T02:51:55.760Z,58.54
2017-05-24T02:52:36.171Z,58.36
2017-05-24T02:53:16.721Z,58.73
2017-05-24T02:53:57.166Z,58.45
2017-05-24T02:54:37.552Z,58.36
2017-05-24T02:55:17.958Z,58.64
2017-05-24T02:55:58.424Z,58.64
2017-05-24T02:56:38.877Z,58.26
2017-05-24T02:57:19.289Z,58.36
2017-05-24T02:57:59.655Z,58.26
2017-05-24T02:58:40.121Z,58.16
2017-05-24T02:59:20.511Z,58.36
2017-05-24T03:00:00.935Z,58.36
2017-05-24T03:00:41.374Z,58.36
2017-05-24T03:01:21.827Z,58.54
2017-05-24T03:02:02.224Z,58.73
2017-05-24T03:02:42.630Z,58.54
2017-05-24T03:03:23.050Z,58.54
2017-05-24T03:04:03.485Z,58.45
2017-05-24T03:04:43.912Z,58.45
2017-05-24T03:05:24.319Z,58.54
2017-05-24T03:06:04.723Z,58.54
2017-05-24T03:06:45.157Z,58.54
2017-05-24T03:07:25.582Z,58.73
2017-05-24T03:08:06.070Z,59.02
2017-05-24T03:08:46.413Z,58.83
2017-05-24T03:09:27.614Z,59.02
2017-05-24T03:10:07.898Z,59.22
2017-05-24T03:10:48.311Z,58.93
2017-05-24T03:11:28.781Z,59.02
2017-05-24T03:12:09.213Z,58.93
2017-05-24T03:12:49.584Z,58.83
2017-05-24T03:13:31.027Z,59.12
2017-05-24T03:14:12.259Z,59.41
2017-05-24T03:14:52.654Z,59.02
2017-05-24T03:15:35.828Z,58.93
2017-05-24T03:16:16.246Z,59.12
2017-05-24T03:16:58.274Z,59.31
2017-05-24T03:17:40.314Z,59.02
2017-05-24T03:18:20.734Z,59.69
2017-05-24T03:19:01.196Z,59.22
2017-05-24T03:19:42.340Z,59.47
2017-05-24T03:20:23.345Z,59.28
2017-05-24T03:21:03.769Z,59.38
2017-05-24T03:21:44.182Z,59.76
2017-05-24T03:22:24.629Z,60.04
2017-05-24T03:23:05.048Z,59.95
2017-05-24T03:23:45.534Z,59.85
2017-05-24T03:24:25.910Z,60.24
2017-05-24T03:25:06.345Z,60.42
2017-05-24T03:25:46.726Z,60.42
2017-05-24T03:26:27.105Z,60.33
2017-05-24T03:27:07.517Z,60.42
2017-05-24T03:27:47.924Z,60.9
2017-05-24T03:28:28.316Z,60.61
2017-05-24T03:29:08.764Z,60.42
2017-05-24T03:29:49.166Z,60.71
2017-05-24T03:30:29.534Z,60.71
2017-05-24T03:31:10.004Z,60.52
2017-05-24T03:31:50.401Z,60.9
2017-05-24T03:32:30.824Z,60.78
2017-05-24T03:33:11.232Z,61.25
2017-05-24T03:33:51.639Z,61.35
2017-05-24T03:34:32.024Z,61.25
2017-05-24T03:35:12.458Z,61.35
2017-05-24T03:35:52.882Z,61.83
2017-05-24T03:36:33.350Z,61.54
2017-05-24T03:37:13.768Z,61.83
2017-05-24T03:37:54.195Z,61.54
2017-05-24T03:38:34.529Z,61.83
2017-05-24T03:39:14.981Z,61.92
2017-05-24T03:39:55.425Z,62.11
2017-05-24T03:40:36.734Z,62.11
2017-05-24T03:41:17.136Z,62.11
2017-05-24T03:41:57.526Z,62.3
2017-05-24T03:42:37.935Z,62.4
2017-05-24T03:43:18.380Z,62.21
2017-05-24T03:43:58.783Z,62.4
2017-05-24T03:44:39.759Z,62.49
2017-05-24T03:45:20.190Z,62.88
2017-05-24T03:46:00.620Z,62.78
2017-05-24T03:46:41.032Z,62.75
2017-05-24T03:47:21.410Z,63.04
2017-05-24T03:48:01.855Z,63.23
2017-05-24T03:48:42.281Z,62.65
2017-05-24T03:49:22.698Z,62.94
2017-05-24T03:50:03.102Z,62.65
2017-05-24T03:50:43.512Z,62.65
2017-05-24T03:51:23.983Z,62.75
2017-05-24T03:52:04.392Z,62.75
2017-05-24T03:52:44.762Z,62.56
2017-05-24T03:53:25.233Z,62.84
2017-05-24T03:54:05.633Z,63.42
2017-05-24T03:54:46.065Z,63.04
2017-05-24T03:55:26.502Z,63.51
2017-05-24T03:56:06.938Z,63.8
2017-05-24T03:56:47.372Z,63.6
2017-05-24T03:57:27.757Z,63.6
2017-05-24T03:58:08.178Z,64.09
2017-05-24T03:58:48.582Z,63.7
2017-05-24T03:59:28.980Z,63.99
2017-05-24T04:00:09.424Z,64.18
2017-05-24T04:00:49.830Z,63.8
2017-05-24T04:01:30.203Z,63.89
2017-05-24T04:02:10.642Z,64.09
2017-05-24T04:02:51.130Z,64.37
2017-05-24T04:03:32.341Z,64.28
2017-05-24T04:04:12.756Z,64.47
2017-05-24T04:04:53.170Z,64.65
2017-05-24T04:05:33.553Z,64.47
2017-05-24T04:06:14.003Z,64.65
2017-05-24T04:06:54.433Z,65.04
2017-05-24T04:07:34.824Z,64.85
2017-05-24T04:08:15.275Z,64.94
2017-05-24T04:08:55.691Z,64.65
2017-05-24T04:09:36.232Z,64.56
2017-05-24T04:10:16.732Z,64.85
2017-05-24T04:11:00.001Z,65.04
2017-05-24T04:11:40.403Z,64.75
2017-05-24T04:12:20.791Z,64.85
2017-05-24T04:13:01.179Z,64.85
2017-05-24T04:13:41.604Z,65.33
2017-05-24T04:14:22.083Z,65.13
2017-05-24T04:15:02.469Z,65.42
2017-05-24T04:15:42.974Z,65.29
2017-05-24T04:16:23.330Z,65.04
2017-05-24T04:17:03.752Z,65.42
2017-05-24T04:17:44.162Z,65.23
2017-05-24T04:18:24.593Z,65.23
2017-05-24T04:19:04.967Z,65.13
2017-05-24T04:19:45.406Z,64.85
2017-05-24T04:20:25.858Z,65.23
2017-05-24T04:21:06.263Z,65.23
2017-05-24T04:21:46.667Z,65.33
2017-05-24T04:24:04.701Z,65.52
2017-05-24T04:24:45.161Z,65.04
2017-05-24T04:25:25.615Z,65.04
2017-05-24T04:26:05.997Z,65.13
2017-05-24T04:27:58.839Z,65.13
2017-05-24T04:28:39.259Z,65.52
2017-05-24T04:29:19.670Z,65.8
2017-05-24T04:30:00.103Z,65.42
2017-05-24T04:30:40.532Z,65.52
2017-05-24T04:31:20.934Z,65.7
2017-05-24T04:32:01.389Z,65.61
2017-05-24T04:32:41.767Z,65.52
2017-05-24T04:33:22.162Z,65.7
2017-05-24T04:34:02.586Z,65.52
2017-05-24T04:34:43.007Z,65.8
2017-05-24T04:35:23.412Z,66.09
2017-05-24T04:36:03.785Z,66.09
2017-05-24T04:36:44.188Z,65.89
2017-05-24T04:37:24.667Z,66.38
2017-05-24T04:38:05.047Z,66.38
2017-05-24T04:38:45.449Z,66.38
2017-05-24T04:39:25.869Z,66.18
2017-05-24T04:40:06.231Z,66.18
2017-05-24T04:40:46.665Z,65.7
2017-05-24T04:41:27.056Z,65.8
2017-05-24T04:42:07.497Z,65.89
2017-05-24T04:42:47.893Z,65.89
2017-05-24T04:43:28.335Z,65.99
2017-05-24T04:44:08.784Z,65.8
2017-05-24T04:44:49.163Z,65.89
2017-05-24T04:45:29.603Z,66.02
2017-05-24T04:46:10.041Z,65.83
2017-05-24T04:46:50.410Z,65.45
2017-05-24T04:47:30.852Z,65.74
2017-05-24T04:48:11.301Z,65.17
2017-05-24T04:48:51.743Z,65.26
2017-05-24T04:49:32.163Z,65.01
2017-05-24T04:50:12.582Z,64.72
2017-05-24T04:50:53.000Z,64.91
2017-05-24T04:51:33.373Z,64.53
2017-05-24T04:52:13.809Z,64.72
2017-05-24T04:52:54.225Z,64.34
2017-05-24T04:53:34.601Z,64.53
2017-05-24T04:54:15.030Z,64.85
2017-05-24T04:54:55.390Z,64.18
2017-05-24T04:55:35.825Z,64.09
2017-05-24T04:56:16.302Z,64.09
2017-05-24T04:56:56.709Z,63.99
2017-05-24T04:57:37.142Z,63.64
2017-05-24T04:58:17.562Z,63.73
2017-05-24T04:58:57.963Z,63.16
2017-05-24T04:59:38.401Z,63.35
2017-05-24T05:00:18.838Z,62.78
2017-05-24T05:00:59.260Z,63.07
2017-05-24T05:01:39.676Z,63.39
2017-05-24T05:02:20.135Z,63
2017-05-24T05:03:00.571Z,62.9
2017-05-24T05:03:40.982Z,63
2017-05-24T05:04:22.311Z,62.62
2017-05-24T05:05:02.742Z,62.71
2017-05-24T05:05:43.122Z,62.43
2017-05-24T05:06:23.537Z,62.43
2017-05-24T05:07:03.944Z,62.62
2017-05-24T05:07:46.118Z,61.88
2017-05-24T05:08:26.712Z,62.27
2017-05-24T05:09:07.295Z,61.88
2017-05-24T05:09:47.746Z,61.79
2017-05-24T05:10:28.142Z,61.98
2017-05-24T05:11:08.588Z,61.6
2017-05-24T05:11:48.965Z,61.51
2017-05-24T05:12:29.386Z,61.44
2017-05-24T05:14:27.276Z,60.77
2017-05-24T05:15:07.706Z,61.05
2017-05-24T05:15:48.100Z,60.86
2017-05-24T05:16:28.510Z,60.86
2017-05-24T05:17:08.964Z,60.86
2017-05-24T05:17:49.396Z,60.38
2017-05-24T05:18:29.873Z,60.41
2017-05-24T05:19:10.296Z,60.41
2017-05-24T05:19:52.946Z,60.32
2017-05-24T05:20:33.392Z,60.13
2017-05-24T05:21:13.745Z,60.13
2017-05-24T05:21:54.215Z,60.13
2017-05-24T05:22:34.655Z,59.94
2017-05-24T05:23:15.844Z,59.55
2017-05-24T05:23:56.445Z,59.2
2017-05-24T05:24:37.128Z,59.58
2017-05-24T05:25:17.507Z,59.68
2017-05-24T05:25:57.901Z,59.39
2017-05-24T05:26:38.386Z,60.16
2017-05-24T05:27:18.779Z,59.2
2017-05-24T05:27:59.176Z,59.2
2017-05-24T05:28:39.660Z,59.42
2017-05-24T05:29:20.108Z,59.52
2017-05-24T05:30:02.164Z,59.13
2017-05-24T05:30:44.502Z,59.23
2017-05-24T05:31:26.430Z,58.65
2017-05-24T05:32:06.871Z,58.75
2017-05-24T05:32:52.721Z,58.65
2017-05-24T05:33:34.852Z,58.78
2017-05-24T05:34:16.287Z,58.46
2017-05-24T05:38:44.600Z,57.82
2017-05-24T05:39:25.485Z,57.63
2017-05-24T05:40:05.889Z,57.82
2017-05-24T05:40:46.331Z,57.46
2017-05-24T05:41:26.749Z,57.46
2017-05-24T05:42:07.145Z,57.85
2017-05-24T05:42:47.561Z,57.37
2017-05-24T05:43:27.978Z,57.28
2017-05-24T05:44:08.394Z,56.89
2017-05-24T05:44:49.478Z,57.37
2017-05-24T05:45:29.892Z,56.79
2017-05-24T05:46:10.304Z,56.41
2017-05-24T05:46:50.746Z,56.41
2017-05-24T05:47:31.161Z,56.31
2017-05-24T05:48:11.589Z,56.22
2017-05-24T05:48:52.070Z,56.51
2017-05-24T05:49:32.491Z,56.31
2017-05-24T05:50:12.903Z,56.51
2017-05-24T05:50:53.334Z,56.51
2017-05-24T05:51:33.753Z,56.79
2017-05-24T05:52:14.182Z,56.7
2017-05-24T05:52:54.581Z,56.51
2017-05-24T05:53:34.927Z,56.41
2017-05-24T05:54:15.346Z,56.51
2017-05-24T05:54:55.766Z,56.51
2017-05-24T05:55:36.177Z,56.51
2017-05-24T05:56:17.438Z,56.51
2017-05-24T05:56:57.835Z,56.53
2017-05-24T05:57:38.290Z,56.24
2017-05-24T05:58:18.700Z,55.86
2017-05-24T05:58:59.736Z,55.96
2017-05-24T05:59:40.185Z,55.57
2017-05-24T06:00:20.614Z,55.47
2017-05-24T06:01:02.932Z,55.47
2017-05-24T06:01:44.092Z,55.1
2017-05-24T06:02:24.499Z,55.19
2017-05-24T06:03:04.950Z,55.38
2017-05-24T06:03:45.337Z,55
2017-05-24T06:04:25.765Z,54.93
2017-05-24T06:05:06.292Z,55.12
2017-05-24T06:05:46.644Z,55.02
2017-05-24T06:06:27.083Z,54.35
2017-05-24T06:07:07.461Z,54.74
2017-05-24T06:07:47.906Z,54.74
2017-05-24T06:08:28.343Z,54.64
2017-05-24T06:09:08.765Z,54.25
2017-05-24T06:09:49.159Z,54
2017-05-24T06:10:29.585Z,54
2017-05-24T06:11:10.029Z,53.52
2017-05-24T06:11:50.446Z,53.61
2017-05-24T06:12:30.927Z,53.7
2017-05-24T06:13:11.446Z,53.32
2017-05-24T06:13:51.856Z,53.32
2017-05-24T06:14:32.404Z,53.61
2017-05-24T06:15:13.859Z,53.03
2017-05-24T06:15:54.288Z,52.65
2017-05-24T06:16:34.723Z,52.58
2017-05-24T06:17:15.110Z,52.48
2017-05-24T06:17:55.548Z,52.58
2017-05-24T06:18:35.993Z,51.91
2017-05-24T06:19:16.843Z,51.91
2017-05-24T06:19:57.261Z,52
2017-05-24T06:20:37.959Z,51.93
2017-05-24T06:21:18.382Z,52.1
2017-05-24T06:21:58.877Z,51.74
2017-05-24T06:22:39.281Z,51.84
2017-05-24T06:23:19.724Z,51.35
2017-05-24T06:24:00.090Z,51.45
2017-05-24T06:24:40.731Z,51.17
2017-05-24T06:25:21.201Z,50.78
2017-05-24T06:26:01.606Z,51.26
2017-05-24T06:26:42.007Z,50.78
2017-05-24T06:27:22.425Z,50.78
2017-05-24T06:28:02.873Z,50.87
2017-05-24T06:28:43.280Z,50.87
2017-05-24T06:29:23.675Z,51.04
2017-05-24T06:30:04.097Z,50.95
2017-05-24T06:30:44.531Z,51.23
2017-05-24T06:31:24.941Z,51.53
2017-05-24T06:32:05.367Z,51.53
2017-05-24T06:32:45.798Z,51.62
2017-05-24T06:33:26.248Z,51.43
2017-05-24T06:34:07.584Z,51.62
2017-05-24T06:34:48.045Z,51.72
2017-05-24T06:35:28.534Z,51.59
2017-05-24T06:37:46.653Z,51.14
2017-05-24T06:38:27.079Z,50.85
2017-05-24T06:39:07.512Z,51.04
2017-05-24T06:39:48.020Z,50.76
2017-05-24T06:40:28.441Z,50.56
2017-05-24T06:41:08.873Z,50.76
2017-05-24T06:41:49.324Z,50.68
2017-05-24T06:42:29.730Z,50.59
2017-05-24T06:43:10.179Z,49.82
2017-05-24T06:43:50.587Z,49.53
2017-05-24T06:44:31.025Z,48.95
2017-05-24T06:45:11.460Z,48.88
2017-05-24T06:45:51.864Z,48.59
2017-05-24T06:46:32.273Z,48.4
2017-05-24T06:47:12.680Z,48.3
2017-05-24T06:47:53.140Z,48.3
2017-05-24T06:48:33.544Z,48.21
2017-05-24T06:49:13.990Z,48.43
2017-05-24T06:49:54.391Z,47.92
2017-05-24T06:50:34.845Z,47.75
2017-05-24T06:51:15.275Z,48.13
2017-05-24T06:51:55.698Z,47.56
2017-05-24T06:52:36.114Z,47.46
2017-05-24T06:53:16.570Z,47.67
2017-05-24T06:53:56.994Z,47.39
2017-05-24T06:54:37.411Z,47.29
2017-05-24T06:55:17.817Z,46.91
2017-05-24T06:55:58.276Z,46.83
2017-05-24T06:56:38.666Z,46.64
2017-05-24T06:57:19.158Z,46.73
2017-05-24T06:57:59.553Z,46.25
2017-05-24T06:58:39.980Z,45.87
2017-05-24T06:59:20.373Z,45.7
2017-05-24T07:00:00.806Z,45.87
2017-05-24T07:00:41.223Z,45.97
2017-05-24T07:01:21.642Z,46.06
2017-05-24T07:02:02.097Z,46.08
2017-05-24T07:02:42.513Z,45.89
2017-05-24T07:03:22.980Z,45.79
2017-05-24T07:04:03.359Z,45.99
2017-05-24T07:04:43.773Z,45.79
2017-05-24T07:05:24.154Z,45.7
2017-05-24T07:06:04.587Z,45.12
2017-05-24T07:06:45.017Z,45.14
2017-05-24T07:07:25.431Z,45.14
2017-05-24T07:08:05.844Z,44.95
2017-05-24T07:08:46.216Z,44.85
2017-05-24T07:09:26.663Z,45.04
2017-05-24T07:10:07.078Z,44.59
2017-05-24T07:10:47.507Z,44.59
2017-05-24T07:11:27.942Z,44.87
2017-05-24T07:12:08.377Z,44.2
2017-05-24T07:12:48.838Z,44.32
2017-05-24T07:13:29.254Z,43.74
2017-05-24T07:14:09.686Z,43.93
2017-05-24T07:16:02.342Z,45.04
2017-05-24T07:16:43.449Z,45.35
2017-05-24T07:17:23.732Z,44.89
2017-05-24T07:18:04.239Z,43.96
2017-05-24T07:18:44.596Z,43.31
2017-05-24T07:19:25.390Z,42.48
2017-05-24T07:20:05.842Z,41.55
2017-05-24T07:20:46.379Z,40.15
2017-05-24T07:21:28.328Z,39.03
2017-05-24T07:22:08.666Z,37.41
2017-05-24T07:22:49.090Z,36.27
2017-05-24T07:23:29.479Z,34.75
2017-05-24T07:24:09.880Z,34.09
2017-05-24T07:24:50.879Z,33.34
2017-05-24T07:25:31.374Z,32.68
2017-05-24T07:26:11.973Z,32.42
2017-05-24T07:26:52.800Z,31.45
2017-05-24T07:27:33.198Z,30.88
2017-05-24T07:28:13.629Z,30.11
2017-05-24T07:28:54.088Z,29.83
2017-05-24T07:30:52.028Z,28.11
2017-05-24T07:31:32.459Z,27.53
2017-05-24T07:32:12.908Z,27.23
2017-05-24T07:32:53.338Z,26.46
2017-05-24T07:33:33.786Z,26.08
2017-05-24T07:34:14.265Z,25.6
2017-05-24T07:36:12.112Z,24.44
2017-05-24T07:38:25.114Z,23
2017-05-24T07:39:05.541Z,22.89
2017-05-24T07:39:45.983Z,22.91
2017-05-24T07:40:26.440Z,22.33
2017-05-24T07:41:06.862Z,22.03
2017-05-24T07:41:47.363Z,22.23
2017-05-24T07:42:27.733Z,22.13
2017-05-24T07:43:08.145Z,21.93
2017-05-24T07:43:48.613Z,21.73
2017-05-24T07:44:29.020Z,21.83
2017-05-24T07:45:09.478Z,21.44
2017-05-24T07:45:49.859Z,21.14
2017-05-24T07:46:30.275Z,21.03
2017-05-24T07:47:10.757Z,21.13
2017-05-24T07:47:51.175Z,21.42
2017-05-24T07:49:44.068Z,21.41
2017-05-24T07:50:24.517Z,21.39
2017-05-24T07:51:04.962Z,21.79
2017-05-24T07:51:45.411Z,21.59
2017-05-24T07:52:25.842Z,21.2
2017-05-24T07:53:06.276Z,21.1
2017-05-24T07:53:46.735Z,21.2
2017-05-24T07:54:27.129Z,20.89
2017-05-24T07:55:07.587Z,21.08
2017-05-24T07:55:47.985Z,21.55
2017-05-24T07:56:28.572Z,21.54
2017-05-24T07:57:09.009Z,21.73
2017-05-24T07:57:49.986Z,21.92
2017-05-24T07:58:30.383Z,22.02
2017-05-24T07:59:10.817Z,22.01
2017-05-24T07:59:51.276Z,22
2017-05-24T08:00:31.722Z,22.01
2017-05-24T08:01:12.137Z,22.1
2017-05-24T08:01:52.618Z,22
2017-05-24T08:02:33.073Z,22.09
2017-05-24T08:03:13.475Z,21.99
2017-05-24T08:05:31.452Z,21.4
2017-05-24T08:06:11.976Z,21.2
2017-05-24T08:06:52.406Z,20.92
2017-05-24T08:07:33.660Z,20.81
2017-05-24T08:08:14.737Z,21
2017-05-24T08:08:55.820Z,21.37
2017-05-24T08:09:36.268Z,22.03
2017-05-24T08:10:17.223Z,22.02
2017-05-24T08:10:58.476Z,23.07
2017-05-24T08:11:41.715Z,23.83
2017-05-24T08:12:24.702Z,24
2017-05-24T08:13:05.163Z,24.57
2017-05-24T08:13:45.570Z,25.04
2017-05-24T08:14:26.040Z,25.53
2017-05-24T08:15:06.531Z,25.25
2017-05-24T08:15:46.918Z,25.16
2017-05-24T08:16:27.361Z,24.69
2017-05-24T08:17:07.814Z,24.22
2017-05-24T08:17:48.221Z,23.85
2017-05-24T08:18:28.657Z,22.8
2017-05-24T08:19:09.102Z,22.02
2017-05-24T08:19:50.047Z,21.94
2017-05-24T08:20:30.499Z,21.66
2017-05-24T08:21:12.687Z,20.78
2017-05-24T08:21:53.076Z,20.68
2017-05-24T08:22:34.482Z,20.68
2017-05-24T08:23:15.485Z,20.86
2017-05-24T08:23:57.817Z,21.63
2017-05-24T08:24:38.274Z,21.92
2017-05-24T08:25:18.653Z,21.92
2017-05-24T08:25:59.070Z,21.81
2017-05-24T08:26:39.500Z,22.3
2017-05-24T08:27:19.956Z,22.38
2017-05-24T08:28:00.402Z,22.96
2017-05-24T08:28:40.842Z,22.86
2017-05-24T08:29:21.813Z,22.97
2017-05-24T08:30:02.255Z,23.08
2017-05-24T08:30:42.677Z,22.8
2017-05-24T08:31:23.163Z,22.11
2017-05-24T08:32:03.546Z,21.92
2017-05-24T08:32:43.990Z,21.92
2017-05-24T08:33:24.347Z,21.91
2017-05-24T08:34:04.802Z,22.28
2017-05-24T08:34:45.236Z,22.66
2017-05-24T08:35:25.637Z,22.94
2017-05-24T08:36:06.092Z,23.41
2017-05-24T08:36:46.534Z,23.89
2017-05-24T08:37:26.966Z,24.17
2017-05-24T08:38:07.392Z,24.74
2017-05-24T08:38:47.825Z,25.21
2017-05-24T08:39:28.273Z,25.3
2017-05-24T08:40:08.723Z,25.87
2017-05-24T08:40:49.123Z,26.17
2017-05-24T08:41:29.566Z,26.33
2017-05-24T08:42:10.021Z,26.62
2017-05-24T08:42:50.536Z,26.9
2017-05-24T08:44:38.342Z,27.67
2017-05-24T08:45:18.804Z,27.57
2017-05-24T08:45:59.342Z,27.96
2017-05-24T08:46:39.765Z,27.96
2017-05-24T08:47:20.175Z,28.04
2017-05-24T08:48:00.585Z,28.14
2017-05-24T08:48:41.015Z,27.84
2017-05-24T08:49:21.390Z,27.94
2017-05-24T08:50:01.802Z,28.04
2017-05-24T08:50:42.236Z,28.04
2017-05-24T08:51:22.717Z,28.15
2017-05-24T08:52:03.128Z,27.87
2017-05-24T08:52:43.555Z,27.39
2017-05-24T08:53:24.003Z,27.5
2017-05-24T08:54:05.121Z,26.82
2017-05-24T08:54:45.608Z,26.93
2017-05-24T08:55:26.031Z,26.73
2017-05-24T08:56:07.416Z,26.73
2017-05-24T08:56:48.520Z,26.46
2017-05-24T08:57:28.983Z,26.17
2017-05-24T08:58:09.413Z,26.07
2017-05-24T08:58:49.895Z,26.07
2017-05-24T08:59:30.353Z,25.79
2017-05-24T09:00:10.756Z,25.79
2017-05-24T09:00:51.195Z,25.6
2017-05-24T09:01:31.629Z,25.21
2017-05-24T09:02:12.129Z,24.93
2017-05-24T09:02:52.489Z,25.21
2017-05-24T09:03:32.926Z,25.12
2017-05-24T09:04:13.376Z,24.83
2017-05-24T09:04:53.818Z,24.83
2017-05-24T09:05:34.310Z,25.4
2017-05-24T09:06:14.719Z,25.01
2017-05-24T09:06:55.186Z,25.3
2017-05-24T09:07:35.589Z,25.21
2017-05-24T09:09:23.147Z,24.44
2017-05-24T09:10:03.613Z,24.16
2017-05-24T09:10:44.053Z,23.86
2017-05-24T09:12:36.660Z,23.78
2017-05-24T09:13:17.124Z,23.57
2017-05-24T09:13:57.569Z,23.46
2017-05-24T09:14:37.994Z,23.95
2017-05-24T09:15:18.402Z,23.94
2017-05-24T09:15:58.820Z,24.23
2017-05-24T09:16:39.254Z,24.51
2017-05-24T09:17:19.675Z,24.99
2017-05-24T09:18:00.144Z,25.19